Campiña-No se requiere un especial cuidado respecto a la situación meteorológica.   -   No hay avisos

Informes METAR

 

LEZL - Sevilla, Spain
Distancia de la estación: ENE 8km
Actualización: 22/01/2020 12:00
Lluvia débil, Muy nuboso
Lluvia débil, Muy nuboso
 Viento de E
Viento: E 11 km/h
Temperatura: 10°C
Sensación térmica: 8°C
Rocío: 9°C
Humedad: 94%
Barómetro: 1016 hPa
Resumen: Lluvia débil
Nubes: Muy nuboso
Visibilidad: 9 km
Detalles de las nubes: Muy nuboso 762 m
Muy nuboso 1219 m
2020/01/22 11:00 LEZL 221100Z 08006KT 9000 -RA BKN025 BKN040 10/09 Q1016 NOSIG
LEMO - Morón, Spain
Distancia de la estación: SE 43km
Actualización: 22/01/2020 12:00
Muy nuboso
Muy nuboso
 Viento de N
Viento: N 7 km/h
Temperatura: 11°C
Rocío: 8°C
Humedad: 82%
Barómetro: 1016 hPa
Nubes: Muy nuboso
Visibilidad: 10 km
Detalles de las nubes: Parcialmente nuboso 1219 m
Muy nuboso 1524 m
2020/01/22 11:00 LEMO 221100Z 01004KT 330V050 9999 SCT040 BKN050 11/08 Q1016 NOSIG
LEJR - Jeréz, Spain
Distancia de la estación: S 71km
Actualización: 22/01/2020 12:00
Lluvia, Muy nuboso
Lluvia, Muy nuboso
 Viento de E
Viento: E 9 km/h
Temperatura: 10°C
Sensación térmica: 9°C
Rocío: 9°C
Humedad: 94%
Barómetro: 1016 hPa
Resumen: Lluvia
Nubes: Muy nuboso
Visibilidad: 9 km
Detalles de las nubes: Parcialmente nuboso 732 m
Muy nuboso 1524 m
2020/01/22 11:00 LEJR 221100Z 08005KT 9000 3500E RA SCT024 BKN050 10/09 Q1016
 
LERT - Rota, Spain
Distancia de la estación: SSO 89km
Actualización: 22/01/2020 12:00
Parcialmente nuboso
Parcialmente nuboso
 Viento de E
Viento: E 13 km/h
Temperatura: 11°C
Rocío: 10°C
Humedad: 94%
Barómetro: 1015 hPa
Nubes: Parcialmente nuboso
Visibilidad: 10 km
Detalles de las nubes: Poco nuboso 1219 m
Parcialmente nuboso 1737 m
2020/01/22 11:00 LERT 221100Z 10007KT 070V130 9999 FEW040 SCT057 11/10 Q1015 NOSIG
LEMG - Málaga, Spain
Distancia de la estación: ESE 157km
Actualización: 22/01/2020 12:00
Parcialmente nuboso
Parcialmente nuboso
 Viento de variable
Viento: variable 2 km/h
Temperatura: 11°C
Rocío: 9°C
Humedad: 88%
Barómetro: 1017 hPa
Nubes: Parcialmente nuboso
Visibilidad: 10 km
Detalles de las nubes: Poco nuboso 183 m
Poco nuboso 762 m
Parcialmente nuboso 1524 m
2020/01/22 11:00 LEMG 221100Z VRB01KT 9999 FEW006 FEW025TCU SCT050 11/09 Q1017 NOSIG
LEBA - Córdoba, Spain
Distancia de la estación: ENE 115km
Actualización: 22/01/2020 12:00
Parcialmente nuboso
Parcialmente nuboso
 Viento de E
Viento: E 9 km/h
Temperatura: 9°C
Sensación térmica: 7°C
Rocío: 7°C
Humedad: 87%
Barómetro: 1017 hPa
Nubes: Parcialmente nuboso
Visibilidad: 9 km
2020/01/22 11:00 LEBA 221100Z 09005KT 060V120 9000 NSC 09/07 Q1017
 
LEGR - Granada, Spain
Distancia de la estación: E 198km
Actualización: 22/01/2020 12:00
Muy nuboso
Muy nuboso
 Viento de calm
Viento: Calma
Temperatura: 8°C
Rocío: 4°C
Humedad: 76%
Barómetro: 1016 hPa
Nubes: Muy nuboso
Visibilidad: 10 km
Detalles de las nubes: Poco nuboso 701 m
Poco nuboso 1219 m
Muy nuboso 3048 m
2020/01/22 11:00 LEGR 221100Z 00000KT 9999 FEW023 FEW040TCU BKN100 08/04 Q1016
LEAM - Almería, Spain
Distancia de la estación: E 326km
Actualización: 22/01/2020 12:00
Parcialmente nuboso
Parcialmente nuboso
 Viento de ENE
Viento: ENE 26 km/h
Temperatura: 16°C
Rocío: 8°C
Humedad: 59%
Barómetro: 1017 hPa
Nubes: Parcialmente nuboso
Visibilidad: 10 km
Detalles de las nubes: Poco nuboso 610 m
Poco nuboso 762 m
Parcialmente nuboso 1219 m
2020/01/22 11:00 LEAM 221100Z 06014KT 010V080 9999 FEW020 FEW025CB SCT040 16/08 Q1017
LEMD - Madrid/Barajas, Spain
Distancia de la estación: NNE 402km
Actualización: 22/01/2020 12:00
Muy nuboso
Muy nuboso
 Viento de NE
Viento: NE 7 km/h
Temperatura: 8°C
Sensación térmica: 7°C
Rocío: 3°C
Humedad: 71%
Barómetro: 1020 hPa
Nubes: Muy nuboso
Visibilidad: 10 km
Detalles de las nubes: Parcialmente nuboso 1067 m
Muy nuboso 1829 m
2020/01/22 11:00 LEMD 221100Z 05004KT 330V120 9999 SCT035 BKN060 08/03 Q1020 NOSIG
 
LEVD - Valladolid, Spain
Distancia de la estación: N 492km
Actualización: 22/01/2020 12:00
Parcialmente nuboso
Parcialmente nuboso
 Viento de E
Viento: E 28 km/h
Temperatura: 5°C
Sensación térmica: 1°C
Rocío: 2°C
Humedad: 81%
Barómetro: 1020 hPa
Nubes: Parcialmente nuboso
Visibilidad: 10 km
Detalles de las nubes: Parcialmente nuboso 366 m
2020/01/22 11:00 LEVD 221100Z 08015KT 9999 SCT012 05/02 Q1020
LEBL - Barcelona, Spain
Distancia de la estación: NE 816km
Actualización: 22/01/2020 12:00
Lluvia débil, Neblina, Muy nuboso
Lluvia débil, Neblina, Muy nuboso
 Viento de E
Viento: E 20 km/h
Temperatura: 14°C
Rocío: 13°C
Humedad: 94%
Barómetro: 1022 hPa
Resumen: Lluvia débil, Neblina
Nubes: Muy nuboso
Visibilidad: 4 km
Detalles de las nubes: Poco nuboso 305 m
Muy nuboso 457 m
2020/01/22 11:00 LEBL 221100Z 09011KT 4000 -RA BR FEW010 BKN015 14/13 Q1022 NOSIG
LEVC - Valencia, Spain
Distancia de la estación: ENE 535km
Actualización: 22/01/2020 12:00
Tormenta cercana, Muy nuboso
Tormenta cercana, Muy nuboso
 Viento de OSO
Viento: OSO 6 km/h
Temperatura: 12°C
Rocío: 9°C
Humedad: 82%
Barómetro: 1020 hPa
Resumen: Nearby Thunderstorm
Nubes: Muy nuboso
Visibilidad: 10 km
Detalles de las nubes: Parcialmente nuboso 610 m
Poco nuboso 762 m
Muy nuboso 1219 m
2020/01/22 11:00 LEVC 221100Z 24003KT 210V290 9999 VCTS SCT020 FEW025CB BKN040 12/09 Q1020 TEMPO 2000 SHRA